createdAt,value
2019-04-29T00:00:49.943Z,50.43
2019-04-29T00:03:17.751Z,53.47
2019-04-29T00:05:45.731Z,50.80
2019-04-29T00:08:14.741Z,57.03
2019-04-29T00:10:43.828Z,54.57
2019-04-29T00:13:12.224Z,56.57
2019-04-29T00:16:11.657Z,56.47
2019-04-29T00:18:58.848Z,58.97
2019-04-29T00:21:26.554Z,55.77
2019-04-29T00:24:03.592Z,58.30
2019-04-29T00:26:24.030Z,61.87
2019-04-29T00:28:51.689Z,59.67
2019-04-29T00:31:19.191Z,63.07
2019-04-29T00:33:46.790Z,61.60
2019-04-29T00:36:15.304Z,48.57
2019-04-29T00:39:05.628Z,50.03
2019-04-29T00:41:52.691Z,51.23
2019-04-29T00:44:21.418Z,55.53
2019-04-29T00:46:49.374Z,60.73
2019-04-29T00:49:26.776Z,47.90
2019-04-29T00:51:54.893Z,39.07
2019-04-29T00:54:30.700Z,39.23
2019-04-29T00:56:58.642Z,50.93
2019-04-29T00:59:26.519Z,54.33
2019-04-29T01:01:54.371Z,60.23
2019-04-29T01:04:21.980Z,67.67
2019-04-29T01:06:49.938Z,69.70
2019-04-29T01:09:17.854Z,72.43
2019-04-29T01:11:45.766Z,70.60
2019-04-29T01:14:13.380Z,71.13
2019-04-29T01:16:40.966Z,67.77
2019-04-29T01:19:09.033Z,72.73
2019-04-29T01:21:36.671Z,72.10
2019-04-29T01:24:04.428Z,70.53
2019-04-29T01:26:52.548Z,65.53
2019-04-29T01:29:21.162Z,53.87
2019-04-29T01:31:48.755Z,53.93
2019-04-29T01:34:21.278Z,61.10
2019-04-29T01:36:48.892Z,61.70
2019-04-29T01:39:16.845Z,59.57
2019-04-29T01:41:59.036Z,66.70
2019-04-29T01:44:27.941Z,65.27
2019-04-29T01:46:55.910Z,67.53
2019-04-29T01:49:23.910Z,70.93
2019-04-29T01:51:51.947Z,63.03
2019-04-29T01:54:19.783Z,68.57
2019-04-29T01:56:47.693Z,69.67
2019-04-29T01:59:15.605Z,72.93
2019-04-29T02:01:43.641Z,79.83
2019-04-29T02:04:11.206Z,73.77
2019-04-29T02:06:38.717Z,76.10
2019-04-29T02:09:10.520Z,73.87
2019-04-29T02:11:39.028Z,74.73
2019-04-29T02:14:07.061Z,65.33
2019-04-29T02:16:35.246Z,56.97
2019-04-29T02:19:02.824Z,58.93
2019-04-29T02:21:30.706Z,59.83
2019-04-29T02:24:23.859Z,54.60
2019-04-29T02:26:51.466Z,55.13
2019-04-29T02:29:19.070Z,51.40
2019-04-29T02:31:47.611Z,51.83
2019-04-29T02:34:15.548Z,50.60
2019-04-29T02:36:43.077Z,53.87
2019-04-29T02:39:28.892Z,56.50
2019-04-29T02:42:16.455Z,76.03
2019-04-29T02:44:44.919Z,75.90
2019-04-29T02:47:12.440Z,80.63
2019-04-29T02:49:40.040Z,67.33
2019-04-29T02:52:07.667Z,59.37
2019-04-29T02:54:36.288Z,56.07
2019-04-29T02:57:23.405Z,62.53
2019-04-29T02:59:54.079Z,65.50
2019-04-29T03:02:36.632Z,64.67
2019-04-29T03:05:15.959Z,66.90
2019-04-29T03:07:43.756Z,65.77
2019-04-29T03:10:12.092Z,61.67
2019-04-29T03:12:40.059Z,58.37
2019-04-29T03:15:08.863Z,74.80
2019-04-29T03:17:37.651Z,62.87
2019-04-29T03:20:26.596Z,72.30
2019-04-29T03:23:08.352Z,61.17
2019-04-29T03:25:35.981Z,63.70
2019-04-29T03:28:03.833Z,70.37
2019-04-29T03:30:31.577Z,71.13
2019-04-29T03:32:59.333Z,69.97
2019-04-29T03:35:27.060Z,69.27
2019-04-29T03:37:54.683Z,65.60
2019-04-29T03:40:22.261Z,63.53
2019-04-29T03:42:49.976Z,63.50
2019-04-29T03:45:17.674Z,55.17
2019-04-29T03:47:45.277Z,54.90
2019-04-29T03:50:12.851Z,53.53
2019-04-29T03:52:40.768Z,59.00
2019-04-29T03:55:08.568Z,61.10
2019-04-29T03:57:37.196Z,68.60
2019-04-29T04:00:05.708Z,63.13
2019-04-29T04:02:48.863Z,52.97
2019-04-29T04:05:38.966Z,56.40
2019-04-29T04:08:11.698Z,54.27
2019-04-29T04:10:39.517Z,60.33
2019-04-29T04:13:07.225Z,62.00
2019-04-29T04:15:34.862Z,64.63
2019-04-29T04:18:11.256Z,66.83
2019-04-29T04:20:39.183Z,67.90
2019-04-29T04:23:06.772Z,69.17
2019-04-29T04:25:34.958Z,81.17
2019-04-29T04:28:02.572Z,71.63
2019-04-29T04:30:30.478Z,80.30
2019-04-29T04:32:58.092Z,85.37
2019-04-29T04:35:26.329Z,78.07
2019-04-29T04:37:53.927Z,79.10
2019-04-29T04:40:28.142Z,70.07
2019-04-29T04:42:56.170Z,69.50
2019-04-29T04:45:23.762Z,64.60
2019-04-29T04:47:51.422Z,67.53
2019-04-29T04:50:19.022Z,69.27
2019-04-29T04:52:46.987Z,68.83
2019-04-29T04:55:14.811Z,74.73
2019-04-29T04:57:42.417Z,75.83
2019-04-29T05:03:04.918Z,88.70
2019-04-29T05:05:32.611Z,83.23
2019-04-29T05:08:00.434Z,84.50
2019-04-29T05:10:28.293Z,106.17
2019-04-29T05:12:55.933Z,113.50
2019-04-29T05:15:23.552Z,88.03
2019-04-29T05:17:53.184Z,90.30
2019-04-29T05:20:21.167Z,88.17
2019-04-29T05:23:01.103Z,91.57
2019-04-29T05:25:33.057Z,94.77
2019-04-29T05:28:01.299Z,99.87
2019-04-29T05:30:28.995Z,112.13
2019-04-29T05:32:56.620Z,130.97
2019-04-29T05:35:29.195Z,106.47
2019-04-29T05:38:07.577Z,98.60
2019-04-29T05:40:40.230Z,102.83
2019-04-29T05:43:10.040Z,101.93
2019-04-29T05:46:00.181Z,98.60
2019-04-29T05:48:32.001Z,97.17
2019-04-29T05:51:07.979Z,95.23
2019-04-29T05:53:39.623Z,96.27
2019-04-29T05:56:07.215Z,104.30
2019-04-29T05:58:37.832Z,103.93
2019-04-29T06:01:09.885Z,101.53
2019-04-29T06:03:39.498Z,101.53
2019-04-29T06:06:07.636Z,99.73
2019-04-29T06:08:39.203Z,91.93
2019-04-29T06:11:04.670Z,91.87
2019-04-29T06:13:32.315Z,91.83
2019-04-29T06:15:59.906Z,96.80
2019-04-29T06:18:27.504Z,85.57
2019-04-29T06:21:08.205Z,80.67
2019-04-29T06:23:25.016Z,74.53
2019-04-29T06:25:52.610Z,63.20
2019-04-29T06:28:21.780Z,61.73
2019-04-29T06:30:51.832Z,58.03
2019-04-29T06:33:19.731Z,56.00
2019-04-29T06:35:48.702Z,52.00
2019-04-29T06:38:17.070Z,49.20
2019-04-29T06:40:44.684Z,46.47
2019-04-29T06:43:12.456Z,26.80
2019-04-29T06:45:40.047Z,30.23
2019-04-29T06:48:07.649Z,30.53
2019-04-29T06:50:36.383Z,29.03
2019-04-29T06:53:05.281Z,25.70
2019-04-29T06:55:32.880Z,29.83
2019-04-29T06:58:00.574Z,24.93
2019-04-29T07:00:28.196Z,24.20
2019-04-29T07:02:57.656Z,21.97
2019-04-29T07:05:25.180Z,24.80
2019-04-29T07:07:52.762Z,22.90
2019-04-29T07:10:21.794Z,23.33
2019-04-29T07:12:50.119Z,22.70
2019-04-29T07:15:18.050Z,18.77
2019-04-29T07:17:46.014Z,16.73
2019-04-29T07:20:13.722Z,15.33
2019-04-29T07:22:41.312Z,16.30
2019-04-29T07:25:09.144Z,16.30
2019-04-29T07:27:43.007Z,16.83
2019-04-29T07:30:08.530Z,17.03
2019-04-29T07:32:36.068Z,19.13
2019-04-29T07:35:05.913Z,19.17
2019-04-29T07:37:35.567Z,19.53
2019-04-29T07:40:08.071Z,21.27
2019-04-29T07:42:34.308Z,20.93
2019-04-29T07:45:43.598Z,18.70
2019-04-29T07:48:06.167Z,17.77
2019-04-29T07:50:31.729Z,18.32
2019-04-29T07:52:59.665Z,21.27
2019-04-29T07:55:30.993Z,19.70
2019-04-29T07:57:56.922Z,17.97
2019-04-29T08:00:34.741Z,18.67
2019-04-29T08:03:05.343Z,20.17
2019-04-29T08:05:33.246Z,20.15
2019-04-29T08:08:01.015Z,19.00
2019-04-29T08:10:29.884Z,18.80
2019-04-29T08:12:58.922Z,18.70
2019-04-29T08:15:26.930Z,17.50
2019-04-29T08:18:05.977Z,19.37
2019-04-29T08:20:24.945Z,18.07
2019-04-29T08:22:52.903Z,18.87
2019-04-29T08:25:21.812Z,18.52
2019-04-29T08:27:50.055Z,18.73
2019-04-29T08:30:18.379Z,17.98
2019-04-29T08:32:46.244Z,18.20
2019-04-29T08:35:13.735Z,21.70
2019-04-29T08:37:41.334Z,23.90
2019-04-29T08:40:16.361Z,20.43
2019-04-29T08:42:46.563Z,18.98
2019-04-29T08:45:23.436Z,17.82
2019-04-29T08:47:50.929Z,19.13
2019-04-29T08:50:18.570Z,19.87
2019-04-29T08:52:46.345Z,21.97
2019-04-29T08:55:14.291Z,20.80
2019-04-29T08:57:42.482Z,22.97
2019-04-29T09:00:11.715Z,20.02
2019-04-29T09:02:41.254Z,18.00
2019-04-29T09:05:11.820Z,18.60
2019-04-29T09:07:40.237Z,20.27
2019-04-29T09:10:08.653Z,20.00
2019-04-29T09:12:36.284Z,20.55
2019-04-29T09:15:05.435Z,19.23
2019-04-29T09:17:33.337Z,18.85
2019-04-29T09:20:01.272Z,19.95
2019-04-29T09:22:31.291Z,20.05
2019-04-29T09:25:30.555Z,19.90
2019-04-29T09:28:00.035Z,19.90
2019-04-29T09:30:28.416Z,19.87
2019-04-29T09:32:56.035Z,19.75
2019-04-29T09:35:23.651Z,20.03
2019-04-29T09:37:53.833Z,20.85
2019-04-29T09:40:24.681Z,20.60
2019-04-29T09:46:18.434Z,20.17
2019-04-29T09:48:44.855Z,21.20
2019-04-29T09:51:17.857Z,20.90
2019-04-29T09:53:42.107Z,20.00
2019-04-29T09:56:10.411Z,21.57
2019-04-29T09:58:38.053Z,21.40
2019-04-29T10:01:24.237Z,20.47
2019-04-29T10:04:18.121Z,21.07
2019-04-29T10:06:47.250Z,21.60
2019-04-29T10:09:15.089Z,22.47
2019-04-29T10:11:42.715Z,21.90
2019-04-29T10:14:10.647Z,20.37
2019-04-29T10:16:59.933Z,20.80
2019-04-29T10:19:53.047Z,20.97
2019-04-29T10:22:20.938Z,22.13
2019-04-29T10:24:48.468Z,21.40
2019-04-29T10:27:16.272Z,19.95
2019-04-29T10:29:46.651Z,21.47
2019-04-29T10:32:17.200Z,20.77
2019-04-29T10:34:48.617Z,20.82
2019-04-29T10:37:16.941Z,19.98
2019-04-29T10:40:11.307Z,20.72
2019-04-29T10:42:59.039Z,20.72
2019-04-29T10:45:40.438Z,21.85
2019-04-29T10:48:26.903Z,22.25
2019-04-29T10:50:55.666Z,21.77
2019-04-29T10:53:23.635Z,23.10
2019-04-29T10:55:51.843Z,20.10
2019-04-29T10:58:22.491Z,20.72
2019-04-29T11:02:00.663Z,20.15
2019-04-29T11:04:17.760Z,18.25
2019-04-29T11:06:45.386Z,19.10
2019-04-29T11:09:31.499Z,18.02
2019-04-29T11:11:59.437Z,19.32
2019-04-29T11:14:27.344Z,19.90
2019-04-29T11:17:16.204Z,19.65
2019-04-29T11:19:39.913Z,20.00
2019-04-29T11:22:07.746Z,20.95
2019-04-29T11:24:46.805Z,20.62
2019-04-29T11:27:21.781Z,18.37
2019-04-29T11:29:49.640Z,19.37
2019-04-29T11:32:29.074Z,19.70
2019-04-29T11:35:10.940Z,19.62
2019-04-29T11:37:38.823Z,22.85
2019-04-29T11:40:06.640Z,20.95
2019-04-29T11:42:36.789Z,20.10
2019-04-29T11:45:08.219Z,21.17
2019-04-29T11:47:35.974Z,22.50
2019-04-29T11:50:13.633Z,20.80
2019-04-29T11:52:41.573Z,19.17
2019-04-29T11:55:09.110Z,19.05
2019-04-29T11:57:43.596Z,20.25
2019-04-29T12:00:34.970Z,18.53
2019-04-29T12:03:06.620Z,19.15
2019-04-29T12:05:53.718Z,18.85
2019-04-29T12:08:21.330Z,18.67
2019-04-29T12:11:06.078Z,19.02
2019-04-29T12:13:41.272Z,18.97
2019-04-29T12:16:19.732Z,17.02
2019-04-29T12:18:55.877Z,20.90
2019-04-29T12:21:31.351Z,18.62
2019-04-29T12:24:00.752Z,19.37
2019-04-29T12:26:28.528Z,18.82
2019-04-29T12:28:56.329Z,22.10
2019-04-29T12:31:30.288Z,19.82
2019-04-29T12:34:17.618Z,21.35
2019-04-29T12:36:55.801Z,22.67
2019-04-29T12:39:42.797Z,22.50
2019-04-29T12:42:20.802Z,22.65
2019-04-29T12:44:51.762Z,19.75
2019-04-29T12:47:27.015Z,21.45
2019-04-29T12:49:54.844Z,22.48
2019-04-29T12:52:22.814Z,20.45
2019-04-29T12:54:50.567Z,20.68
2019-04-29T12:57:18.915Z,21.15
2019-04-29T12:59:47.819Z,20.62
2019-04-29T13:02:40.986Z,20.20
2019-04-29T13:05:35.274Z,21.40
2019-04-29T13:08:22.632Z,19.37
2019-04-29T13:10:52.742Z,20.55
2019-04-29T13:13:21.930Z,20.30
2019-04-29T13:16:20.087Z,18.95
2019-04-29T13:18:54.034Z,19.85
2019-04-29T13:21:19.063Z,19.62
2019-04-29T13:23:59.136Z,17.87
2019-04-29T13:26:27.298Z,18.30
2019-04-29T13:28:59.117Z,19.42
2019-04-29T13:31:19.983Z,19.48
2019-04-29T13:33:50.879Z,17.77
2019-04-29T13:36:19.843Z,13.20
2019-04-29T13:38:46.657Z,17.55
2019-04-29T13:41:18.487Z,13.08
2019-04-29T13:43:43.494Z,15.53
2019-04-29T13:46:21.683Z,13.35
2019-04-29T13:49:13.521Z,11.48
2019-04-29T13:51:39.286Z,13.20
2019-04-29T13:54:07.067Z,12.58
2019-04-29T13:56:54.188Z,12.47
2019-04-29T13:59:10.745Z,11.60
2019-04-29T14:02:10.230Z,15.08
2019-04-29T14:04:45.566Z,14.28
2019-04-29T14:07:14.181Z,14.93
2019-04-29T14:09:43.319Z,14.53
2019-04-29T14:12:46.345Z,16.42
2019-04-29T14:14:40.229Z,15.48
2019-04-29T14:17:25.192Z,16.23
2019-04-29T14:19:42.174Z,13.62
2019-04-29T14:22:21.598Z,13.43
2019-04-29T14:24:38.454Z,15.85
2019-04-29T14:27:06.019Z,14.55
2019-04-29T14:29:33.503Z,10.82
2019-04-29T14:32:01.416Z,12.28
2019-04-29T14:34:36.727Z,14.35
2019-04-29T14:37:19.757Z,15.48
2019-04-29T14:39:37.349Z,13.65
2019-04-29T14:42:11.608Z,16.10
2019-04-29T14:44:50.139Z,15.90
2019-04-29T14:47:34.222Z,14.30
2019-04-29T14:50:03.737Z,15.65
2019-04-29T14:52:31.315Z,16.93
2019-04-29T14:54:59.303Z,17.10
2019-04-29T14:57:26.911Z,17.73
2019-04-29T14:59:54.505Z,17.23
2019-04-29T15:02:24.042Z,17.92
2019-04-29T15:04:52.290Z,18.27
2019-04-29T15:07:19.858Z,17.40
2019-04-29T15:09:57.803Z,19.60
2019-04-29T15:13:19.298Z,23.20
2019-04-29T15:15:48.873Z,23.80
2019-04-29T15:18:51.581Z,23.62
2019-04-29T15:21:45.360Z,21.70
2019-04-29T15:24:12.920Z,19.87
2019-04-29T15:26:40.805Z,22.93
2019-04-29T15:29:08.262Z,21.20
2019-04-29T15:31:35.769Z,18.85
2019-04-29T15:34:03.333Z,23.85
2019-04-29T15:36:34.897Z,20.05
2019-04-29T15:39:09.562Z,22.98
2019-04-29T15:41:32.739Z,22.00
2019-04-29T15:44:07.418Z,15.88
2019-04-29T15:46:45.149Z,21.23
2019-04-29T15:48:59.670Z,19.57
2019-04-29T15:51:27.246Z,17.25
2019-04-29T15:53:54.788Z,15.83
2019-04-29T15:56:28.685Z,13.28
2019-04-29T15:58:52.202Z,14.93
2019-04-29T16:01:27.008Z,15.28
2019-04-29T16:03:54.845Z,12.98
2019-04-29T16:06:48.112Z,13.70
2019-04-29T16:09:51.018Z,10.55
2019-04-29T16:12:17.411Z,10.28
2019-04-29T16:14:48.894Z,13.00
2019-04-29T16:17:14.316Z,11.08
2019-04-29T16:19:41.890Z,11.83
2019-04-29T16:22:13.043Z,13.43
2019-04-29T16:24:38.819Z,13.20
2019-04-29T16:27:08.606Z,11.50
2019-04-29T16:29:35.903Z,8.93
2019-04-29T16:32:05.692Z,8.78
2019-04-29T16:34:37.576Z,7.55
2019-04-29T16:37:02.636Z,9.53
2019-04-29T16:39:30.450Z,7.78
2019-04-29T16:42:21.659Z,7.42
2019-04-29T16:44:49.227Z,7.87
2019-04-29T16:47:16.952Z,8.55
2019-04-29T16:49:44.648Z,8.63
2019-04-29T16:52:12.634Z,7.85
2019-04-29T16:54:40.380Z,5.85
2019-04-29T16:57:07.972Z,6.72
2019-04-29T16:59:35.544Z,9.28
2019-04-29T17:02:04.194Z,7.63
2019-04-29T17:04:32.012Z,8.70
2019-04-29T17:07:12.241Z,7.77
2019-04-29T17:09:51.954Z,8.77
2019-04-29T17:12:19.833Z,6.17
2019-04-29T17:15:02.863Z,7.53
2019-04-29T17:17:28.615Z,8.70
2019-04-29T17:19:50.678Z,9.13
2019-04-29T17:22:27.236Z,6.57
2019-04-29T17:24:48.426Z,7.67
2019-04-29T17:27:44.483Z,7.27
2019-04-29T17:30:38.293Z,7.60
2019-04-29T17:33:26.219Z,6.83
2019-04-29T17:35:47.848Z,6.87
2019-04-29T17:38:16.202Z,5.90
2019-04-29T17:40:50.702Z,6.77
2019-04-29T17:43:43.123Z,5.57
2019-04-29T17:46:45.494Z,6.20
2019-04-29T17:49:17.946Z,4.33
2019-04-29T17:51:45.981Z,5.13
2019-04-29T17:54:16.968Z,3.53
2019-04-29T17:57:10.224Z,4.10
2019-04-29T18:00:06.992Z,3.33
2019-04-29T18:03:07.366Z,3.20
2019-04-29T18:05:54.927Z,2.83
2019-04-29T18:08:21.256Z,2.93
2019-04-29T18:10:52.538Z,3.40
2019-04-29T18:13:24.070Z,3.10
2019-04-29T18:16:00.524Z,3.07
2019-04-29T18:18:27.986Z,2.90
2019-04-29T18:21:25.075Z,2.30
2019-04-29T18:24:19.989Z,2.67
2019-04-29T18:26:52.745Z,3.25
2019-04-29T18:29:20.541Z,3.13
2019-04-29T18:31:48.255Z,3.90
2019-04-29T18:34:15.828Z,4.07
2019-04-29T18:37:03.162Z,4.10
2019-04-29T18:39:31.607Z,4.83
2019-04-29T18:42:03.162Z,4.73
2019-04-29T18:44:28.686Z,5.87
2019-04-29T18:46:57.290Z,5.63
2019-04-29T18:49:25.800Z,5.50
2019-04-29T18:51:53.656Z,6.40
2019-04-29T18:54:21.250Z,7.90
2019-04-29T18:56:49.051Z,8.20
2019-04-29T18:59:20.988Z,7.50
2019-04-29T19:01:46.320Z,8.20
2019-04-29T19:04:20.396Z,7.37
2019-04-29T19:06:51.216Z,7.10
2019-04-29T19:09:20.846Z,7.50
2019-04-29T19:11:48.416Z,7.37
2019-04-29T19:14:15.992Z,7.47
2019-04-29T19:16:43.555Z,7.47
2019-04-29T19:19:11.104Z,8.30
2019-04-29T19:21:38.966Z,7.63
2019-04-29T19:24:06.527Z,8.13
2019-04-29T19:26:35.018Z,8.50
2019-04-29T19:29:06.283Z,9.57
2019-04-29T19:31:36.892Z,11.00
2019-04-29T19:34:05.555Z,12.20
2019-04-29T19:36:35.025Z,12.80
2019-04-29T19:39:05.185Z,13.77
2019-04-29T19:41:33.387Z,14.33
2019-04-29T19:44:01.025Z,13.17
2019-04-29T19:46:36.975Z,14.57
2019-04-29T19:49:05.359Z,14.77
2019-04-29T19:51:27.423Z,13.60
2019-04-29T19:53:58.402Z,14.40
2019-04-29T19:56:27.088Z,15.00
2019-04-29T19:58:57.335Z,15.70
2019-04-29T20:01:29.782Z,16.40
2019-04-29T20:04:17.552Z,14.97
2019-04-29T20:06:44.565Z,16.73
2019-04-29T20:09:17.555Z,17.13
2019-04-29T20:11:41.858Z,17.23
2019-04-29T20:14:18.686Z,20.03
2019-04-29T20:17:00.014Z,18.17
2019-04-29T20:19:32.961Z,18.87
2019-04-29T20:22:07.498Z,18.73
2019-04-29T20:24:30.668Z,18.53
2019-04-29T20:26:58.384Z,19.60
2019-04-29T20:29:33.286Z,18.60
2019-04-29T20:31:56.604Z,20.30
2019-04-29T20:34:28.101Z,20.40
2019-04-29T20:36:55.757Z,19.43
2019-04-29T20:39:25.968Z,18.63
2019-04-29T20:41:53.286Z,17.93
2019-04-29T20:44:21.068Z,19.43
2019-04-29T20:47:12.967Z,17.27
2019-04-29T20:49:19.283Z,18.07
2019-04-29T20:51:52.229Z,18.30
2019-04-29T20:54:21.561Z,18.07
2019-04-29T20:56:56.342Z,16.50
2019-04-29T20:59:19.644Z,16.73
2019-04-29T21:01:52.504Z,16.70
2019-04-29T21:04:31.036Z,15.77
2019-04-29T21:06:59.702Z,15.73
2019-04-29T21:09:22.196Z,16.23
2019-04-29T21:12:15.358Z,15.53
2019-04-29T21:14:47.271Z,16.33
2019-04-29T21:17:27.982Z,16.23
2019-04-29T21:19:44.217Z,14.53
2019-04-29T21:22:12.881Z,16.90
2019-04-29T21:24:41.160Z,13.17
2019-04-29T21:27:08.878Z,15.07
2019-04-29T21:29:36.387Z,14.67
2019-04-29T21:32:05.686Z,13.97
2019-04-29T21:34:40.841Z,16.00
2019-04-29T21:37:18.754Z,17.33
2019-04-29T21:39:56.662Z,17.23
2019-04-29T21:42:58.686Z,16.23
2019-04-29T21:45:26.574Z,16.23
2019-04-29T21:47:54.637Z,17.97
2019-04-29T21:50:29.019Z,17.83
2019-04-29T21:52:55.419Z,17.90
2019-04-29T21:55:27.931Z,17.57
2019-04-29T21:57:54.519Z,17.00
2019-04-29T22:00:24.437Z,17.57
2019-04-29T22:02:50.487Z,19.93
2019-04-29T22:05:18.865Z,19.10
2019-04-29T22:07:47.514Z,19.00
2019-04-29T22:10:19.844Z,20.07
2019-04-29T22:12:45.837Z,20.33
2019-04-29T22:15:15.928Z,21.23
2019-04-29T22:17:54.357Z,23.40
2019-04-29T22:20:15.915Z,23.47
2019-04-29T22:22:45.575Z,24.47
2019-04-29T22:25:13.373Z,25.63
2019-04-29T22:27:41.351Z,24.63
2019-04-29T22:30:14.222Z,26.87
2019-04-29T22:32:39.676Z,25.80
2019-04-29T22:35:07.577Z,27.60
2019-04-29T22:37:38.161Z,28.03
2019-04-29T22:40:04.920Z,26.93
2019-04-29T22:42:52.055Z,28.57
2019-04-29T22:45:20.442Z,27.73
2019-04-29T22:47:48.030Z,28.93
2019-04-29T22:50:15.797Z,27.67
2019-04-29T22:52:45.212Z,29.17
2019-04-29T22:55:15.174Z,27.53
2019-04-29T22:57:44.909Z,28.37
2019-04-29T23:00:15.188Z,28.87
2019-04-29T23:02:42.912Z,28.90
2019-04-29T23:05:10.374Z,28.93
2019-04-29T23:07:39.362Z,27.43
2019-04-29T23:10:07.211Z,26.77
2019-04-29T23:12:35.118Z,29.43
2019-04-29T23:15:05.395Z,31.20
2019-04-29T23:17:33.300Z,26.87
2019-04-29T23:20:08.639Z,29.23
2019-04-29T23:22:45.874Z,30.93
2019-04-29T23:25:21.889Z,29.60
2019-04-29T23:27:52.701Z,28.37
2019-04-29T23:30:25.484Z,26.60
2019-04-29T23:32:53.080Z,27.63
2019-04-29T23:35:20.619Z,26.40
2019-04-29T23:37:48.490Z,24.57
2019-04-29T23:40:15.936Z,26.37
2019-04-29T23:42:47.807Z,26.53
2019-04-29T23:45:14.609Z,25.90
2019-04-29T23:47:46.884Z,25.47
2019-04-29T23:50:13.969Z,24.77
2019-04-29T23:52:42.850Z,23.77
2019-04-29T23:55:10.870Z,24.03
2019-04-29T23:58:02.831Z,25.03
